createdAt,value
2019-02-07T00:00:36.138Z,4.37
2019-02-07T00:03:02.985Z,3.87
2019-02-07T00:05:29.764Z,3.70
2019-02-07T00:07:56.550Z,3.20
2019-02-07T00:10:23.475Z,2.60
2019-02-07T00:12:50.260Z,2.40
2019-02-07T00:15:17.035Z,2.63
2019-02-07T00:17:43.903Z,2.40
2019-02-07T00:20:17.329Z,2.30
2019-02-07T00:22:44.127Z,2.17
2019-02-07T00:25:11.069Z,2.30
2019-02-07T00:27:37.850Z,2.50
2019-02-07T00:30:10.059Z,2.50
2019-02-07T00:32:36.986Z,3.40
2019-02-07T00:35:07.282Z,2.80
2019-02-07T00:37:34.079Z,2.97
2019-02-07T00:40:01.003Z,3.10
2019-02-07T00:42:27.805Z,2.57
2019-02-07T00:44:54.599Z,3.37
2019-02-07T00:47:21.825Z,2.60
2019-02-07T00:49:48.598Z,3.00
2019-02-07T00:52:15.391Z,2.83
2019-02-07T00:54:42.313Z,3.73
2019-02-07T00:57:12.798Z,2.80
2019-02-07T00:59:39.573Z,2.93
2019-02-07T01:02:06.489Z,2.40
2019-02-07T01:04:33.560Z,2.20
2019-02-07T01:07:00.343Z,1.97
2019-02-07T01:09:27.268Z,1.93
2019-02-07T01:11:54.049Z,1.97
2019-02-07T01:14:20.825Z,2.10
2019-02-07T01:16:47.758Z,1.73
2019-02-07T01:19:14.536Z,1.73
2019-02-07T01:21:41.312Z,1.63
2019-02-07T01:24:08.251Z,1.80
2019-02-07T01:26:35.030Z,1.63
2019-02-07T01:29:01.798Z,1.80
2019-02-07T01:31:28.706Z,1.90
2019-02-07T01:33:55.487Z,2.60
2019-02-07T01:36:22.268Z,2.60
2019-02-07T01:38:49.302Z,2.50
2019-02-07T01:41:16.368Z,2.13
2019-02-07T01:43:43.143Z,1.90
2019-02-07T01:46:10.000Z,2.20
2019-02-07T01:48:36.786Z,1.93
2019-02-07T01:51:03.578Z,1.90
2019-02-07T01:53:30.508Z,2.13
2019-02-07T01:55:57.297Z,1.60
2019-02-07T01:58:24.105Z,1.50
2019-02-07T02:00:51.436Z,1.60
2019-02-07T02:03:18.229Z,1.47
2019-02-07T02:05:45.002Z,1.63
2019-02-07T02:08:11.936Z,1.40
2019-02-07T02:10:38.721Z,1.67
2019-02-07T02:13:05.516Z,1.40
2019-02-07T02:15:32.450Z,1.40
2019-02-07T02:17:59.234Z,1.70
2019-02-07T02:20:26.037Z,1.50
2019-02-07T02:22:54.347Z,1.50
2019-02-07T02:25:21.145Z,1.60
2019-02-07T02:27:47.935Z,1.87
2019-02-07T02:30:34.091Z,2.73
2019-02-07T02:33:01.179Z,2.53
2019-02-07T02:35:27.965Z,2.57
2019-02-07T02:37:54.873Z,1.80
2019-02-07T02:40:21.651Z,1.83
2019-02-07T02:42:48.457Z,1.87
2019-02-07T02:45:20.690Z,2.20
2019-02-07T02:47:47.778Z,2.03
2019-02-07T02:50:17.158Z,2.43
2019-02-07T02:52:44.085Z,2.37
2019-02-07T02:55:10.854Z,2.40
2019-02-07T02:57:37.638Z,2.10
2019-02-07T03:00:14.242Z,2.50
2019-02-07T03:02:41.045Z,2.03
2019-02-07T03:05:08.227Z,2.27
2019-02-07T03:07:35.151Z,2.17
2019-02-07T03:10:01.942Z,2.30
2019-02-07T03:12:28.725Z,2.37
2019-02-07T03:14:55.646Z,2.20
2019-02-07T03:17:22.423Z,1.73
2019-02-07T03:19:49.247Z,2.03
2019-02-07T03:22:16.169Z,1.60
2019-02-07T03:24:43.497Z,1.80
2019-02-07T03:27:10.244Z,2.00
2019-02-07T03:29:37.169Z,1.90
2019-02-07T03:32:04.258Z,2.43
2019-02-07T03:34:31.048Z,3.07
2019-02-07T03:36:57.903Z,2.20
2019-02-07T03:39:24.716Z,1.77
2019-02-07T03:41:51.515Z,2.23
2019-02-07T03:44:18.473Z,2.10
2019-02-07T03:46:45.257Z,2.20
2019-02-07T03:49:12.033Z,2.40
2019-02-07T03:51:38.988Z,2.60
2019-02-07T03:54:05.764Z,2.63
2019-02-07T03:56:32.563Z,2.60
2019-02-07T03:58:59.495Z,2.43
2019-02-07T04:01:26.715Z,3.10
2019-02-07T04:03:53.547Z,10.33
2019-02-07T04:06:20.367Z,17.40
2019-02-07T04:08:47.171Z,17.10
2019-02-07T04:11:13.948Z,14.27
2019-02-07T04:13:40.871Z,6.23
2019-02-07T04:16:15.178Z,4.00
2019-02-07T04:18:36.234Z,4.37
2019-02-07T04:21:03.092Z,3.77
2019-02-07T04:23:29.868Z,3.30
2019-02-07T04:25:56.661Z,3.23
2019-02-07T04:28:23.597Z,4.13
2019-02-07T04:30:50.401Z,3.93
2019-02-07T04:33:17.181Z,3.77
2019-02-07T04:35:44.061Z,3.70
2019-02-07T04:38:11.029Z,5.07
2019-02-07T04:40:37.826Z,4.30
2019-02-07T04:43:04.740Z,3.90
2019-02-07T04:45:31.545Z,3.50
2019-02-07T04:47:58.310Z,4.17
2019-02-07T04:50:25.244Z,4.50
2019-02-07T04:52:52.034Z,5.97
2019-02-07T04:55:19.125Z,8.43
2019-02-07T04:57:46.055Z,5.90
2019-02-07T05:00:15.517Z,3.93
2019-02-07T05:02:42.296Z,7.23
2019-02-07T05:05:09.200Z,5.27
2019-02-07T05:07:35.995Z,7.60
2019-02-07T05:10:07.593Z,7.53
2019-02-07T05:12:34.710Z,5.80
2019-02-07T05:15:01.562Z,4.30
2019-02-07T05:17:28.358Z,4.30
2019-02-07T05:19:55.283Z,5.17
2019-02-07T05:22:22.060Z,5.33
2019-02-07T05:24:48.873Z,6.00
2019-02-07T05:27:15.700Z,7.07
2019-02-07T05:29:42.492Z,4.30
2019-02-07T05:32:09.569Z,6.03
2019-02-07T05:34:36.407Z,6.13
2019-02-07T05:37:03.182Z,6.50
2019-02-07T05:39:29.975Z,5.83
2019-02-07T05:41:56.883Z,8.73
2019-02-07T05:44:23.684Z,9.50
2019-02-07T05:46:51.297Z,11.37
2019-02-07T05:49:18.209Z,17.37
2019-02-07T05:51:44.984Z,23.07
2019-02-07T05:54:11.769Z,26.67
2019-02-07T05:56:38.709Z,24.03
2019-02-07T05:59:05.492Z,32.57
2019-02-07T06:01:32.334Z,18.70
2019-02-07T06:03:59.276Z,17.07
2019-02-07T06:06:26.235Z,16.03
2019-02-07T06:08:53.808Z,13.80
2019-02-07T06:11:22.636Z,13.63
2019-02-07T06:13:49.412Z,13.60
2019-02-07T06:16:16.205Z,28.70
2019-02-07T06:18:44.414Z,35.77
2019-02-07T06:21:11.223Z,53.30
2019-02-07T06:23:38.022Z,41.33
2019-02-07T06:26:05.338Z,49.07
2019-02-07T06:28:32.125Z,32.70
2019-02-07T06:30:58.888Z,30.77
2019-02-07T06:33:25.882Z,46.07
2019-02-07T06:35:52.671Z,35.43
2019-02-07T06:38:19.452Z,43.70
2019-02-07T06:40:46.368Z,80.53
2019-02-07T06:43:13.182Z,36.23
2019-02-07T06:45:41.990Z,34.30
2019-02-07T06:48:08.914Z,27.03
2019-02-07T06:50:35.708Z,32.13
2019-02-07T06:53:02.500Z,27.07
2019-02-07T06:55:29.439Z,30.37
2019-02-07T06:57:57.720Z,33.40
2019-02-07T07:00:24.509Z,15.07
2019-02-07T07:02:51.803Z,18.83
2019-02-07T07:05:19.505Z,21.47
2019-02-07T07:07:46.296Z,18.50
2019-02-07T07:10:13.303Z,24.50
2019-02-07T07:12:40.117Z,46.47
2019-02-07T07:15:09.852Z,32.17
2019-02-07T07:17:36.706Z,32.10
2019-02-07T07:20:07.909Z,15.07
2019-02-07T07:22:34.737Z,16.27
2019-02-07T07:25:01.658Z,20.77
2019-02-07T07:27:28.442Z,23.70
2019-02-07T07:29:55.229Z,20.43
2019-02-07T07:32:22.172Z,17.53
2019-02-07T07:34:49.009Z,20.67
2019-02-07T07:37:15.799Z,10.30
2019-02-07T07:39:42.655Z,15.50
2019-02-07T07:42:09.438Z,16.33
2019-02-07T07:44:36.234Z,12.83
2019-02-07T07:47:03.133Z,9.43
2019-02-07T07:49:29.921Z,16.40
2019-02-07T07:51:56.716Z,15.10
2019-02-07T07:54:23.928Z,28.73
2019-02-07T07:56:50.717Z,10.70
2019-02-07T07:59:17.511Z,8.70
2019-02-07T08:01:44.344Z,18.43
2019-02-07T08:04:11.175Z,25.80
2019-02-07T08:06:37.959Z,15.43
2019-02-07T08:09:09.395Z,9.03
2019-02-07T08:11:36.595Z,7.90
2019-02-07T08:14:04.387Z,9.33
2019-02-07T08:16:31.283Z,17.10
2019-02-07T08:18:58.065Z,22.00
2019-02-07T08:21:24.858Z,21.03
2019-02-07T08:23:51.787Z,33.73
2019-02-07T08:26:18.574Z,19.97
2019-02-07T08:28:45.750Z,8.80
2019-02-07T08:31:12.674Z,11.57
2019-02-07T08:33:39.486Z,17.10
2019-02-07T08:36:06.263Z,17.53
2019-02-07T08:38:33.102Z,16.60
2019-02-07T08:40:59.875Z,16.53
2019-02-07T08:43:26.670Z,22.90
2019-02-07T08:45:53.559Z,18.30
2019-02-07T08:48:20.616Z,18.23
2019-02-07T08:50:47.416Z,48.80
2019-02-07T08:53:14.361Z,45.83
2019-02-07T08:55:41.144Z,31.53
2019-02-07T08:58:07.928Z,21.23
2019-02-07T09:00:34.868Z,75.50
2019-02-07T09:03:01.656Z,59.37
2019-02-07T09:05:28.890Z,30.47
2019-02-07T09:07:55.824Z,23.90
2019-02-07T09:10:22.603Z,30.70
2019-02-07T09:12:49.432Z,32.40
2019-02-07T09:15:16.356Z,20.73
2019-02-07T09:17:43.143Z,13.00
2019-02-07T09:20:10.538Z,10.73
2019-02-07T09:22:37.464Z,12.57
2019-02-07T09:25:05.357Z,7.27
2019-02-07T09:27:32.148Z,7.83
2019-02-07T09:29:58.979Z,5.07
2019-02-07T09:32:25.767Z,6.57
2019-02-07T09:34:52.568Z,3.70
2019-02-07T09:37:19.710Z,4.90
2019-02-07T09:39:46.514Z,5.90
2019-02-07T09:42:13.699Z,5.13
2019-02-07T09:44:40.650Z,6.13
2019-02-07T09:47:07.417Z,5.57
2019-02-07T09:49:34.197Z,6.77
2019-02-07T09:52:01.138Z,15.67
2019-02-07T09:54:27.930Z,8.53
2019-02-07T09:56:54.722Z,7.50
2019-02-07T09:59:21.635Z,6.80
2019-02-07T10:01:48.431Z,9.00
2019-02-07T10:04:18.783Z,6.33
2019-02-07T10:06:45.633Z,6.37
2019-02-07T10:09:12.420Z,7.07
2019-02-07T10:11:39.211Z,11.20
2019-02-07T10:14:06.117Z,8.90
2019-02-07T10:16:32.977Z,7.00
2019-02-07T10:18:59.977Z,6.80
2019-02-07T10:21:26.824Z,8.07
2019-02-07T10:23:53.618Z,7.63
2019-02-07T10:26:20.411Z,6.83
2019-02-07T10:28:47.354Z,4.93
2019-02-07T10:31:14.137Z,3.67
2019-02-07T10:33:40.926Z,3.73
2019-02-07T10:36:07.849Z,4.10
2019-02-07T10:38:34.622Z,3.47
2019-02-07T10:41:04.122Z,4.50
2019-02-07T10:43:31.040Z,6.03
2019-02-07T10:45:57.851Z,4.30
2019-02-07T10:48:24.641Z,5.30
2019-02-07T10:50:51.599Z,3.57
2019-02-07T10:53:18.381Z,3.60
2019-02-07T10:55:45.267Z,3.00
2019-02-07T10:58:12.209Z,3.40
2019-02-07T11:00:38.991Z,4.47
2019-02-07T11:03:05.765Z,4.23
2019-02-07T11:05:32.690Z,3.70
2019-02-07T11:07:59.492Z,3.50
2019-02-07T11:10:26.266Z,3.17
2019-02-07T11:12:53.388Z,3.07
2019-02-07T11:15:20.225Z,3.80
2019-02-07T11:17:47.014Z,5.10
2019-02-07T11:20:15.863Z,5.07
2019-02-07T11:22:42.671Z,3.70
2019-02-07T11:25:09.452Z,5.97
2019-02-07T11:27:36.399Z,5.80
2019-02-07T11:30:11.894Z,5.60
2019-02-07T11:32:38.827Z,4.67
2019-02-07T11:35:05.624Z,4.13
2019-02-07T11:37:33.083Z,5.20
2019-02-07T11:40:00.028Z,7.83
2019-02-07T11:42:26.826Z,8.17
2019-02-07T11:44:53.833Z,8.03
2019-02-07T11:47:20.767Z,6.23
2019-02-07T11:49:47.544Z,5.23
2019-02-07T11:52:14.327Z,3.47
2019-02-07T11:54:41.274Z,4.00
2019-02-07T11:57:08.065Z,3.33
2019-02-07T11:59:34.845Z,3.20
2019-02-07T12:02:08.736Z,4.57
2019-02-07T12:04:30.277Z,10.70
2019-02-07T12:06:57.124Z,15.27
2019-02-07T12:09:24.151Z,3.27
2019-02-07T12:11:51.030Z,5.07
2019-02-07T12:14:17.830Z,19.83
2019-02-07T12:16:44.761Z,4.87
2019-02-07T12:19:18.202Z,2.10
2019-02-07T12:21:40.334Z,1.43
2019-02-07T12:24:07.270Z,1.40
2019-02-07T12:26:34.071Z,1.70
2019-02-07T12:29:00.904Z,1.70
2019-02-07T12:31:27.835Z,1.43
2019-02-07T12:33:56.272Z,2.10
2019-02-07T12:36:23.215Z,2.40
2019-02-07T12:38:50.106Z,3.77
2019-02-07T12:41:16.899Z,3.47
2019-02-07T12:43:43.709Z,1.90
2019-02-07T12:46:10.629Z,1.70
2019-02-07T12:48:37.428Z,1.27
2019-02-07T12:51:05.326Z,5.07
2019-02-07T12:53:32.205Z,1.57
2019-02-07T12:55:59.651Z,1.57
2019-02-07T12:58:26.440Z,1.87
2019-02-07T13:00:53.599Z,1.20
2019-02-07T13:03:20.399Z,2.10
2019-02-07T13:05:47.184Z,1.40
2019-02-07T13:08:14.180Z,1.00
2019-02-07T13:10:41.003Z,1.37
2019-02-07T13:13:07.768Z,1.00
2019-02-07T13:15:34.993Z,1.10
2019-02-07T13:18:01.812Z,1.20
2019-02-07T13:20:28.589Z,1.10
2019-02-07T13:22:55.534Z,2.43
2019-02-07T13:25:22.318Z,2.63
2019-02-07T13:27:49.179Z,1.20
2019-02-07T13:30:19.335Z,1.50
2019-02-07T13:32:45.569Z,1.40
2019-02-07T13:35:12.491Z,4.93
2019-02-07T13:37:39.466Z,1.80
2019-02-07T13:40:09.712Z,1.50
2019-02-07T13:42:37.712Z,1.40
2019-02-07T13:45:10.527Z,1.70
2019-02-07T14:58:00.872Z,10.07
2019-02-07T15:00:27.839Z,23.20
2019-02-07T15:03:22.044Z,13.03
2019-02-07T15:06:27.350Z,6.83
2019-02-07T15:08:54.322Z,8.93
2019-02-07T15:11:21.185Z,9.13
2019-02-07T15:13:48.271Z,17.57
2019-02-07T15:16:15.188Z,20.07
2019-02-07T15:18:41.995Z,23.57
2019-02-07T15:21:08.851Z,19.93
2019-02-07T15:23:35.782Z,10.83
2019-02-07T15:26:02.588Z,39.37
2019-02-07T15:28:29.693Z,14.03
2019-02-07T15:30:56.674Z,86.37
2019-02-07T15:33:23.479Z,9.80
2019-02-07T15:35:50.252Z,6.07
2019-02-07T15:38:17.155Z,9.27
2019-02-07T15:40:43.952Z,13.23
2019-02-07T15:43:10.736Z,31.53
2019-02-07T15:45:37.697Z,20.30
2019-02-07T15:48:04.474Z,84.93
2019-02-07T15:50:37.738Z,39.03
2019-02-07T15:53:00.039Z,28.97
2019-02-07T15:55:26.823Z,26.17
2019-02-07T15:57:53.832Z,33.23
2019-02-07T16:00:23.506Z,44.17
2019-02-07T16:02:50.291Z,43.17
2019-02-07T16:05:17.094Z,33.50
2019-02-07T16:07:44.025Z,26.27
2019-02-07T16:10:15.509Z,23.77
2019-02-07T16:12:42.344Z,44.07
2019-02-07T16:15:11.072Z,19.03
2019-02-07T16:17:37.883Z,16.40
2019-02-07T16:20:15.746Z,17.43
2019-02-07T16:22:42.927Z,19.17
2019-02-07T16:25:12.855Z,20.33
2019-02-07T16:27:39.788Z,16.67
2019-02-07T16:30:18.520Z,83.37
2019-02-07T16:32:45.444Z,16.37
2019-02-07T16:35:15.232Z,16.60
2019-02-07T16:37:42.263Z,28.80
2019-02-07T16:40:12.185Z,26.13
2019-02-07T16:42:38.963Z,23.40
2019-02-07T16:45:13.384Z,15.07
2019-02-07T16:47:40.320Z,13.97
2019-02-07T16:50:12.550Z,5.97
2019-02-07T16:52:39.398Z,11.40
2019-02-07T16:55:09.520Z,17.63
2019-02-07T16:57:36.305Z,20.90
2019-02-07T17:00:17.098Z,26.00
2019-02-07T17:02:45.265Z,16.70
2019-02-07T17:05:13.486Z,15.93
2019-02-07T17:07:40.670Z,16.57
2019-02-07T17:10:17.927Z,17.33
2019-02-07T17:12:44.927Z,23.50
2019-02-07T17:15:18.127Z,19.47
2019-02-07T17:17:48.671Z,24.47
2019-02-07T17:20:22.911Z,47.13
2019-02-07T17:22:50.864Z,33.20
2019-02-07T17:25:17.617Z,25.97
2019-02-07T17:27:44.684Z,19.20
2019-02-07T17:30:19.609Z,21.57
2019-02-07T17:32:46.840Z,29.57
2019-02-07T17:35:14.520Z,27.10
2019-02-07T17:37:41.311Z,22.67
2019-02-07T17:40:15.488Z,16.97
2019-02-07T17:42:42.258Z,23.30
2019-02-07T17:45:15.727Z,22.50
2019-02-07T17:47:42.852Z,33.50
2019-02-07T17:50:23.221Z,24.00
2019-02-07T17:52:50.489Z,25.27
2019-02-07T17:55:23.925Z,27.37
2019-02-07T17:57:50.735Z,29.60
2019-02-07T18:00:30.968Z,49.97
2019-02-07T18:02:57.770Z,107.17
2019-02-07T18:05:26.256Z,83.63
2019-02-07T18:07:54.513Z,30.27
2019-02-07T18:10:21.307Z,21.03
2019-02-07T18:12:50.864Z,31.73
2019-02-07T18:15:17.767Z,28.83
2019-02-07T18:17:44.950Z,27.77
2019-02-07T18:20:22.492Z,28.43
2019-02-07T18:22:51.801Z,30.00
2019-02-07T18:25:18.564Z,29.13
2019-02-07T18:27:45.531Z,27.47
2019-02-07T18:30:20.981Z,35.53
2019-02-07T18:32:47.937Z,34.50
2019-02-07T18:35:16.060Z,41.47
2019-02-07T18:37:42.865Z,44.37
2019-02-07T18:40:19.794Z,35.03
2019-02-07T18:42:46.590Z,29.27
2019-02-07T18:45:15.974Z,29.10
2019-02-07T18:47:42.812Z,33.37
2019-02-07T18:50:23.720Z,33.23
2019-02-07T18:52:50.653Z,29.13
2019-02-07T18:55:17.468Z,25.77
2019-02-07T18:57:44.289Z,26.83
2019-02-07T19:00:26.889Z,24.77
2019-02-07T19:02:53.693Z,23.63
2019-02-07T19:05:22.014Z,26.37
2019-02-07T19:07:48.963Z,21.57
2019-02-07T19:10:19.307Z,24.50
2019-02-07T19:12:46.176Z,24.60
2019-02-07T19:15:37.298Z,23.70
2019-02-07T19:18:04.255Z,31.10
2019-02-07T19:20:31.140Z,31.97
2019-02-07T19:22:58.136Z,23.07
2019-02-07T19:25:25.002Z,21.63
2019-02-07T19:27:52.079Z,20.60
2019-02-07T19:30:26.543Z,24.63
2019-02-07T19:32:54.099Z,24.00
2019-02-07T19:35:20.925Z,18.20
2019-02-07T19:37:47.853Z,16.90
2019-02-07T19:40:19.015Z,15.03
2019-02-07T19:42:46.103Z,13.37
2019-02-07T19:45:22.409Z,15.13
2019-02-07T19:47:49.288Z,14.93
2019-02-07T19:50:25.001Z,11.57
2019-02-07T19:52:51.874Z,12.73
2019-02-07T19:55:22.646Z,12.67
2019-02-07T19:57:49.878Z,12.13
2019-02-07T20:00:20.250Z,12.67
2019-02-07T20:02:47.223Z,13.03
2019-02-07T20:05:14.178Z,13.53
2019-02-07T20:07:41.045Z,12.77
2019-02-07T20:10:28.885Z,10.80
2019-02-07T20:12:56.598Z,10.13
2019-02-07T20:15:37.045Z,10.87
2019-02-07T20:18:06.235Z,9.40
2019-02-07T20:20:33.085Z,13.00
2019-02-07T20:22:59.993Z,12.87
2019-02-07T20:25:26.911Z,13.23
2019-02-07T20:27:54.109Z,11.47
2019-02-07T20:30:24.414Z,11.87
2019-02-07T20:32:51.202Z,10.43
2019-02-07T20:35:18.007Z,11.93
2019-02-07T20:37:44.877Z,12.70
2019-02-07T20:40:17.081Z,12.93
2019-02-07T20:42:44.477Z,11.30
2019-02-07T20:45:12.332Z,13.97
2019-02-07T20:47:43.167Z,10.47
2019-02-07T20:50:20.349Z,11.83
2019-02-07T20:52:51.816Z,13.63
2019-02-07T20:55:23.769Z,12.13
2019-02-07T20:57:51.093Z,13.77
2019-02-07T21:00:23.553Z,10.57
2019-02-07T21:02:53.390Z,12.70
2019-02-07T21:05:20.188Z,15.73
2019-02-07T21:07:46.968Z,25.03
2019-02-07T21:10:21.293Z,19.83
2019-02-07T21:12:48.092Z,12.43
2019-02-07T21:15:18.870Z,9.43
2019-02-07T21:17:45.571Z,6.13
2019-02-07T21:20:17.474Z,6.80
2019-02-07T21:22:44.277Z,7.07
2019-02-07T21:25:16.524Z,9.17
2019-02-07T21:27:43.316Z,7.63
2019-02-07T21:30:15.218Z,5.97
2019-02-07T21:32:42.464Z,6.33
2019-02-07T21:35:16.732Z,6.57
2019-02-07T21:37:43.590Z,5.97
2019-02-07T21:40:16.923Z,7.20
2019-02-07T21:42:43.720Z,7.20
2019-02-07T21:45:13.967Z,7.17
2019-02-07T21:47:40.763Z,7.87
2019-02-07T21:50:12.454Z,11.23
2019-02-07T21:52:41.890Z,10.17
2019-02-07T21:55:11.896Z,9.77
2019-02-07T21:57:38.680Z,10.17
2019-02-07T22:00:13.142Z,12.23
2019-02-07T22:02:39.933Z,9.80
2019-02-07T22:05:07.216Z,7.73
2019-02-07T22:07:34.066Z,5.27
2019-02-07T22:10:00.855Z,6.07
2019-02-07T22:12:27.635Z,5.97
2019-02-07T22:14:54.481Z,6.80
2019-02-07T22:17:21.277Z,5.27
2019-02-07T22:19:48.094Z,4.87
2019-02-07T22:22:14.975Z,4.00
2019-02-07T22:24:41.949Z,4.33
2019-02-07T22:27:08.739Z,4.80
2019-02-07T22:29:35.600Z,5.33
2019-02-07T22:32:02.400Z,4.97
2019-02-07T22:34:29.192Z,5.07
2019-02-07T22:36:56.059Z,5.13
2019-02-07T22:39:22.839Z,5.33
2019-02-07T22:41:49.621Z,4.67
2019-02-07T22:44:16.773Z,4.97
2019-02-07T22:46:43.547Z,5.00
2019-02-07T22:49:10.314Z,4.67
2019-02-07T22:51:37.171Z,5.60
2019-02-07T22:54:03.950Z,4.77
2019-02-07T22:56:30.722Z,4.13
2019-02-07T23:01:42.667Z,3.93
2019-02-07T23:04:09.515Z,4.30
2019-02-07T23:06:36.306Z,5.13
2019-02-07T23:09:05.515Z,5.53
2019-02-07T23:11:32.357Z,4.50
2019-02-07T23:13:59.141Z,4.47
2019-02-07T23:16:26.342Z,5.53
2019-02-07T23:18:54.975Z,3.60
2019-02-07T23:21:21.910Z,3.50
2019-02-07T23:23:48.687Z,3.93
2019-02-07T23:26:15.532Z,3.50
2019-02-07T23:28:42.321Z,4.10
2019-02-07T23:31:09.119Z,3.47
2019-02-07T23:33:35.960Z,3.50
2019-02-07T23:36:03.145Z,3.73
2019-02-07T23:38:29.951Z,6.60
2019-02-07T23:40:56.784Z,5.30
2019-02-07T23:43:23.574Z,4.00
2019-02-07T23:45:50.359Z,4.33
2019-02-07T23:48:17.195Z,3.87
2019-02-07T23:50:43.970Z,4.30
2019-02-07T23:53:14.696Z,6.03
2019-02-07T23:55:39.396Z,3.57
2019-02-07T23:58:06.179Z,3.90
